Time;durP1;ratioP1;P1;durP2;ratioP2;P2;SDS_P1;SDS_P2;PMS_P1;PMS_P2;Temp;Humidity;BMP_temperature;BMP_pressure;BME280_temperature;BME280_humidity;BME280_pressure;Samples;Min_cycle;Max_cycle;Signal;HPM_P1;HPM_P2
2022/08/24 00:01:24;;;;;;;1.80;0.20;;;;;;;18.86;100.00;100869.94;5021080;28;20056;-50
2022/08/24 00:03:49;;;;;;;0.03;0.03;;;;;;;18.88;100.00;100880.47;5023117;28;20029;-56
2022/08/24 00:06:19;;;;;;;1.10;0.28;;;;;;;18.88;100.00;100873.22;5020782;28;20067;-54
2022/08/24 00:08:46;;;;;;;0.57;0.30;;;;;;;18.88;100.00;100873.22;5018452;28;20367;-55
2022/08/24 00:11:12;;;;;;;0.45;0.10;;;;;;;18.88;100.00;100870.53;5022231;28;20037;-52
2022/08/24 00:13:37;;;;;;;0.10;0.10;;;;;;;18.89;100.00;100866.78;5022422;28;20046;-53
2022/08/24 00:16:04;;;;;;;0.30;0.20;;;;;;;18.88;100.00;100875.09;5022120;28;20387;-54
2022/08/24 00:18:29;;;;;;;1.10;0.28;;;;;;;18.89;100.00;100874.03;5025775;28;20044;-53
2022/08/24 00:20:55;;;;;;;3.50;0.77;;;;;;;18.90;100.00;100878.38;5024239;28;20049;-54
2022/08/24 00:23:20;;;;;;;0.20;0.20;;;;;;;18.90;100.00;100873.81;5023685;28;20030;-54
2022/08/24 00:25:46;;;;;;;0.20;0.20;;;;;;;18.90;100.00;100879.19;5017869;28;20030;-55
2022/08/24 00:28:12;;;;;;;1.50;1.23;;;;;;;18.90;100.00;100873.00;5023682;28;20422;-52
2022/08/24 00:30:37;;;;;;;0.10;0.10;;;;;;;18.89;100.00;100872.16;5028551;28;20026;-53
2022/08/24 00:33:03;;;;;;;0.38;0.13;;;;;;;18.90;100.00;100875.69;5026610;28;20383;-54
2022/08/24 00:35:28;;;;;;;0.10;0.10;;;;;;;18.89;100.00;100874.03;5016475;28;20471;-51
2022/08/24 00:37:54;;;;;;;0.57;0.20;;;;;;;18.87;100.00;100863.53;5025561;28;20598;-54
2022/08/24 00:40:26;;;;;;;0.43;0.00;;;;;;;18.85;100.00;100867.53;5025518;28;20030;-53
2022/08/24 00:42:54;;;;;;;0.10;0.10;;;;;;;18.81;100.00;100867.16;5021934;28;20159;-53
2022/08/24 00:45:21;;;;;;;0.10;0.00;;;;;;;18.80;100.00;100875.47;5019842;28;20443;-51
2022/08/24 00:47:53;;;;;;;0.35;0.30;;;;;;;18.82;100.00;100871.50;5017803;28;20125;-49
2022/08/24 00:50:47;;;;;;;0.10;0.10;;;;;;;18.85;100.00;100871.00;5028617;28;20030;-54
2022/08/24 00:53:39;;;;;;;0.22;0.00;;;;;;;18.85;100.00;100875.56;5018450;28;20038;-55
2022/08/24 00:56:14;;;;;;;0.00;0.00;;;;;;;18.85;100.00;100870.19;5022863;28;20042;-53
2022/08/24 00:58:45;;;;;;;0.15;0.13;;;;;;;18.86;100.00;100872.63;5017178;28;20034;-51
2022/08/24 01:01:13;;;;;;;0.47;0.00;;;;;;;18.87;100.00;100878.81;5024963;28;20117;-50
2022/08/24 01:03:41;;;;;;;0.45;0.10;;;;;;;18.88;100.00;100867.03;5022640;28;20053;-51
2022/08/24 01:06:07;;;;;;;0.22;0.00;;;;;;;18.87;100.00;100865.38;5015702;28;20392;-53
2022/08/24 01:08:34;;;;;;;1.55;0.20;;;;;;;18.86;100.00;100861.06;5016474;28;20495;-46
2022/08/24 01:11:03;;;;;;;0.10;0.10;;;;;;;18.86;100.00;100861.88;5017763;28;20029;-50
2022/08/24 01:13:31;;;;;;;0.45;0.10;;;;;;;18.86;100.00;100867.25;5017484;28;20073;-52
2022/08/24 01:16:00;;;;;;;0.08;0.08;;;;;;;18.87;100.00;100862.69;5020421;28;20021;-52
2022/08/24 01:21:10;;;;;;;0.10;0.10;;;;;;;18.84;100.00;100864.00;5023700;28;20036;-52
2022/08/24 01:23:42;;;;;;;0.03;0.03;;;;;;;18.84;100.00;100869.38;5027593;28;20449;-52
2022/08/24 01:26:14;;;;;;;0.73;0.10;;;;;;;18.85;100.00;100867.53;5016076;28;20065;-54
2022/08/24 01:28:42;;;;;;;0.10;0.10;;;;;;;18.85;100.00;100875.56;5023386;28;20486;-54
2022/08/24 01:31:07;;;;;;;0.00;0.00;;;;;;;18.83;100.00;100872.31;5022432;28;20083;-53
2022/08/24 01:33:33;;;;;;;1.23;0.80;;;;;;;18.85;100.00;100880.94;5011639;28;20037;-54
2022/08/24 01:36:04;;;;;;;1.58;0.40;;;;;;;18.83;100.00;100872.31;5026924;28;20017;-51
2022/08/24 01:38:31;;;;;;;0.52;0.10;;;;;;;18.83;100.00;100873.13;5024714;28;20116;-54
2022/08/24 01:41:00;;;;;;;0.15;0.08;;;;;;;18.83;100.00;100873.13;5022960;28;20035;-55
2022/08/24 01:43:26;;;;;;;0.43;0.25;;;;;;;18.82;100.00;100878.72;5019602;28;20546;-51
2022/08/24 01:45:52;;;;;;;0.45;0.32;;;;;;;18.82;100.00;100870.66;5017173;28;20041;-53
2022/08/24 01:48:19;;;;;;;0.20;0.20;;;;;;;18.83;100.00;100877.69;5023957;28;20033;-54
2022/08/24 01:50:45;;;;;;;0.35;0.10;;;;;;;18.83;100.00;100875.81;5019260;28;20745;-54
2022/08/24 01:53:10;;;;;;;0.30;0.10;;;;;;;18.83;100.00;100877.69;5026292;28;20029;-53
2022/08/24 01:55:36;;;;;;;1.45;0.65;;;;;;;18.83;100.00;100883.84;5024895;28;20042;-51
2022/08/24 01:58:02;;;;;;;1.95;0.30;;;;;;;18.84;100.00;100873.94;5022872;28;20391;-50
2022/08/24 02:00:28;;;;;;;0.10;0.10;;;;;;;18.84;100.00;100880.09;5020445;28;20080;-52
2022/08/24 02:02:55;;;;;;;0.20;0.20;;;;;;;18.83;100.00;100877.69;5026705;28;20471;-52
2022/08/24 02:05:23;;;;;;;0.17;0.10;;;;;;;18.83;100.00;100883.06;5022123;28;20383;-54
2022/08/24 02:07:49;;;;;;;1.42;0.10;;;;;;;18.84;100.00;100879.28;5022843;28;21289;-49
2022/08/24 02:10:15;;;;;;;1.10;0.40;;;;;;;18.84;100.00;100884.66;5022903;28;20327;-50
2022/08/24 02:12:43;;;;;;;0.63;0.20;;;;;;;18.82;100.00;100887.59;5029817;28;20061;-54
2022/08/24 02:15:09;;;;;;;0.28;0.10;;;;;;;18.82;100.00;100884.09;5027825;28;20030;-53
2022/08/24 02:17:36;;;;;;;0.32;0.13;;;;;;;18.81;100.00;100891.34;5022312;28;20033;-50
2022/08/24 02:20:04;;;;;;;0.00;0.00;;;;;;;18.82;100.00;100892.16;5025687;28;20026;-49
2022/08/24 02:22:30;;;;;;;2.20;0.38;;;;;;;18.79;100.00;100885.38;5013881;28;20029;-54
2022/08/24 02:24:56;;;;;;;0.30;0.03;;;;;;;18.77;100.00;100884.81;5027805;28;20049;-54
2022/08/24 02:27:22;;;;;;;0.00;0.00;;;;;;;18.76;100.00;100885.84;5021166;28;20339;-54
2022/08/24 02:29:47;;;;;;;0.45;0.45;;;;;;;18.72;100.00;100888.16;5019220;28;20063;-51
2022/08/24 02:32:13;;;;;;;1.85;0.10;;;;;;;18.72;100.00;100887.34;5029977;28;20490;-52
2022/08/24 02:34:38;;;;;;;0.50;0.20;;;;;;;18.72;100.00;100880.09;5022721;28;20029;-53
2022/08/24 02:37:03;;;;;;;0.63;0.20;;;;;;;18.72;100.00;100876.63;5024633;28;20049;-53
2022/08/24 02:39:29;;;;;;;0.00;0.00;;;;;;;18.72;100.00;100877.41;5029232;28;20033;-53
2022/08/24 02:41:54;;;;;;;0.73;0.30;;;;;;;18.70;100.00;100878.72;5027809;28;20082;-54
2022/08/24 02:44:20;;;;;;;0.13;0.13;;;;;;;18.67;100.00;100876.50;5026069;28;20033;-54
2022/08/24 02:46:45;;;;;;;0.20;0.00;;;;;;;18.67;100.00;100876.50;5025080;28;20854;-54
2022/08/24 02:49:11;;;;;;;0.00;0.00;;;;;;;18.68;100.00;100872.75;5022171;28;20034;-52
2022/08/24 02:51:37;;;;;;;0.10;0.05;;;;;;;18.71;100.00;100880.34;5027411;28;20437;-53
2022/08/24 02:54:04;;;;;;;0.10;0.10;;;;;;;18.72;100.00;100879.28;5024741;28;20386;-55
2022/08/24 02:56:31;;;;;;;0.28;0.10;;;;;;;18.73;100.00;100878.22;5021215;28;20087;-53
2022/08/24 02:58:59;;;;;;;0.10;0.10;;;;;;;18.74;100.00;100877.16;5028254;28;20033;-53
2022/08/24 03:01:26;;;;;;;0.08;0.00;;;;;;;18.76;100.00;100883.16;5012940;28;20057;-48
2022/08/24 03:03:52;;;;;;;0.10;0.00;;;;;;;18.76;100.00;100875.09;5026456;28;20078;-53
2022/08/24 03:06:17;;;;;;;0.03;0.00;;;;;;;18.75;100.00;100876.16;5015567;28;20045;-54
2022/08/24 03:08:44;;;;;;;0.00;0.00;;;;;;;18.73;100.00;100870.19;5030571;28;20351;-52
2022/08/24 03:11:10;;;;;;;0.75;0.00;;;;;;;18.73;100.00;100867.50;5029240;28;20043;-53
2022/08/24 03:13:37;;;;;;;0.55;0.00;;;;;;;18.73;100.00;100867.50;5020296;28;20037;-49
2022/08/24 03:16:03;;;;;;;0.32;0.00;;;;;;;18.73;100.00;100870.19;5022046;28;20562;-49
2022/08/24 03:18:29;;;;;;;0.05;0.05;;;;;;;18.73;100.00;100868.31;5018295;28;20091;-50
2022/08/24 03:20:56;;;;;;;0.05;0.00;;;;;;;18.73;100.00;100865.63;5030258;28;20068;-50
2022/08/24 03:23:22;;;;;;;0.17;0.03;;;;;;;18.73;100.00;100862.13;5032053;28;20430;-52
2022/08/24 03:25:50;;;;;;;0.65;0.03;;;;;;;18.71;100.00;100858.84;5025639;28;20044;-53
2022/08/24 03:28:16;;;;;;;0.10;0.05;;;;;;;18.69;100.00;100861.78;5019462;28;20030;-50
2022/08/24 03:30:42;;;;;;;0.50;0.13;;;;;;;18.66;100.00;100858.72;5021292;28;20344;-53
2022/08/24 03:33:08;;;;;;;0.15;0.15;;;;;;;18.62;100.00;100862.97;5028419;28;20122;-50
2022/08/24 03:35:34;;;;;;;0.10;0.10;;;;;;;18.60;100.00;100873.13;5021272;28;20033;-52
2022/08/24 03:37:59;;;;;;;0.00;0.00;;;;;;;18.60;100.00;100865.06;5028640;28;20017;-54
2022/08/24 03:40:25;;;;;;;0.38;0.00;;;;;;;18.61;100.00;100864.00;5023491;28;20037;-53
2022/08/24 03:42:51;;;;;;;0.38;0.00;;;;;;;18.63;100.00;100867.28;5023216;28;20109;-52
2022/08/24 03:45:16;;;;;;;0.00;0.00;;;;;;;18.62;100.00;100871.81;5017638;28;20044;-55
2022/08/24 03:47:42;;;;;;;0.43;0.00;;;;;;;18.63;100.00;100859.22;5013672;28;20048;-54
2022/08/24 03:50:08;;;;;;;0.00;0.00;;;;;;;18.64;100.00;100863.53;5013316;28;20021;-50
2022/08/24 03:52:34;;;;;;;0.38;0.00;;;;;;;18.63;100.00;100859.22;5030720;28;20056;-51
2022/08/24 03:55:00;;;;;;;0.03;0.00;;;;;;;18.62;100.00;100866.47;5010252;28;20034;-53
2022/08/24 03:57:26;;;;;;;1.08;0.00;;;;;;;18.62;100.00;100869.16;5012873;28;20044;-54
2022/08/24 03:59:51;;;;;;;0.22;0.00;;;;;;;18.62;100.00;100871.81;5028931;28;20025;-47
2022/08/24 04:02:16;;;;;;;0.00;0.00;;;;;;;18.62;100.00;100879.06;5022835;28;20026;-54
2022/08/24 04:04:42;;;;;;;1.58;0.00;;;;;;;18.59;100.00;100871.50;5024733;28;20409;-51
2022/08/24 04:07:07;;;;;;;0.05;0.03;;;;;;;18.59;100.00;100876.88;5016747;28;20506;-53
2022/08/24 04:09:32;;;;;;;0.25;0.00;;;;;;;18.59;100.00;100871.50;5021048;28;20456;-49
2022/08/24 04:11:58;;;;;;;0.00;0.00;;;;;;;18.58;100.00;100872.53;5024066;28;20069;-54
2022/08/24 04:14:24;;;;;;;0.00;0.00;;;;;;;18.58;100.00;100869.84;5024509;28;20083;-49
2022/08/24 04:16:49;;;;;;;0.08;0.08;;;;;;;18.57;100.00;100862.84;5018715;28;20048;-51
2022/08/24 04:19:15;;;;;;;0.30;0.00;;;;;;;18.59;100.00;100868.81;5020294;28;20589;-50
2022/08/24 04:21:41;;;;;;;0.00;0.00;;;;;;;18.58;100.00;100869.84;5023987;28;20048;-49
2022/08/24 04:24:09;;;;;;;1.02;0.10;;;;;;;18.56;100.00;100866.56;5025442;28;20048;-52
2022/08/24 04:26:35;;;;;;;1.13;0.10;;;;;;;18.54;100.00;100864.13;5022959;28;20025;-55
2022/08/24 04:29:01;;;;;;;0.00;0.00;;;;;;;18.53;100.00;100866.00;5023102;28;20025;-49
2022/08/24 04:31:28;;;;;;;0.10;0.10;;;;;;;18.52;100.00;100861.66;5022580;28;20091;-49
2022/08/24 04:33:53;;;;;;;0.00;0.00;;;;;;;18.50;100.00;100871.00;5017668;28;20033;-53
2022/08/24 04:36:20;;;;;;;0.20;0.10;;;;;;;18.49;100.00;100878.25;5024657;28;20367;-49
2022/08/24 04:38:47;;;;;;;0.25;0.00;;;;;;;18.49;100.00;100872.88;5029778;28;20026;-54
2022/08/24 04:41:13;;;;;;;1.13;0.00;;;;;;;18.49;100.00;100875.56;5019607;28;20030;-52
2022/08/24 04:43:44;;;;;;;0.10;0.00;;;;;;;18.49;100.00;100874.75;5020960;28;20382;-50
2022/08/24 04:46:11;;;;;;;0.20;0.00;;;;;;;18.48;100.00;100875.78;5023053;28;20521;-51
2022/08/24 04:48:36;;;;;;;0.70;0.10;;;;;;;18.46;100.00;100875.22;5019845;28;20033;-54
2022/08/24 04:51:03;;;;;;;0.10;0.00;;;;;;;18.44;100.00;100870.09;5022074;28;20121;-50
2022/08/24 04:53:30;;;;;;;0.70;0.00;;;;;;;18.43;100.00;100876.50;5015399;28;20489;-48
2022/08/24 04:55:55;;;;;;;0.20;0.03;;;;;;;18.43;100.00;100878.34;5019566;28;20049;-49
2022/08/24 04:58:20;;;;;;;0.20;0.00;;;;;;;18.43;100.00;100873.81;5027154;28;20372;-52
2022/08/24 05:00:46;;;;;;;0.10;0.10;;;;;;;18.43;100.00;100876.50;5024902;28;20124;-49
2022/08/24 05:03:12;;;;;;;1.60;0.00;;;;;;;18.43;100.00;100879.19;5024391;28;20033;-53
2022/08/24 05:05:43;;;;;;;0.00;0.00;;;;;;;18.43;100.00;100875.66;5023659;28;20076;-52
2022/08/24 05:08:09;;;;;;;1.75;0.55;;;;;;;18.42;100.00;100887.47;5028065;28;20033;-54
2022/08/24 05:10:40;;;;;;;1.27;0.13;;;;;;;18.42;100.00;100892.84;5026870;28;20037;-51
2022/08/24 05:13:06;;;;;;;0.95;0.00;;;;;;;18.42;100.00;100892.84;5013456;28;20068;-49
2022/08/24 05:15:33;;;;;;;0.00;0.00;;;;;;;18.41;100.00;100894.72;5020053;28;20038;-53
2022/08/24 05:17:59;;;;;;;0.20;0.00;;;;;;;18.43;100.00;100897.16;5022350;28;20120;-52
2022/08/24 05:20:25;;;;;;;0.90;0.00;;;;;;;18.44;100.00;100894.25;5024820;28;20033;-55
2022/08/24 05:22:52;;;;;;;0.38;0.00;;;;;;;18.45;100.00;100897.75;5018922;28;20029;-49
2022/08/24 05:25:18;;;;;;;0.00;0.00;;;;;;;18.46;100.00;100897.53;5024800;28;20098;-51
2022/08/24 05:27:44;;;;;;;0.13;0.00;;;;;;;18.46;100.00;100900.19;5022449;28;20088;-54
2022/08/24 05:30:10;;;;;;;2.03;0.00;;;;;;;18.47;100.00;100899.13;5019253;28;20471;-54
2022/08/24 05:32:36;;;;;;;0.10;0.10;;;;;;;18.47;100.00;100896.47;5020698;28;20029;-48
2022/08/24 05:35:03;;;;;;;0.20;0.00;;;;;;;18.48;100.00;100898.09;5019855;28;20040;-53
2022/08/24 05:37:30;;;;;;;0.15;0.10;;;;;;;18.48;100.00;100900.78;5022480;28;20207;-49
2022/08/24 05:39:55;;;;;;;0.15;0.10;;;;;;;18.49;100.00;100904.28;5023394;28;20470;-49
2022/08/24 05:42:20;;;;;;;1.73;0.00;;;;;;;18.49;100.00;100907.78;5022292;28;20052;-55
2022/08/24 05:44:46;;;;;;;0.00;0.00;;;;;;;18.51;100.00;100903.00;5024020;28;20142;-50
2022/08/24 05:47:11;;;;;;;1.55;0.00;;;;;;;18.51;100.00;100903.00;5019767;28;20116;-53
2022/08/24 05:49:37;;;;;;;1.75;0.20;;;;;;;18.53;100.00;100900.06;5023034;28;20025;-55
2022/08/24 05:52:02;;;;;;;0.10;0.10;;;;;;;18.53;100.00;100903.59;5019512;28;20113;-50
2022/08/24 05:54:28;;;;;;;1.05;0.00;;;;;;;18.55;100.00;100902.53;5024610;28;20475;-55
2022/08/24 05:56:54;;;;;;;0.05;0.00;;;;;;;18.56;100.00;100905.00;5023588;28;20104;-49
2022/08/24 05:59:21;;;;;;;0.43;0.10;;;;;;;18.58;100.00;100905.56;5025654;28;20140;-55
2022/08/24 06:01:46;;;;;;;0.00;0.00;;;;;;;18.62;100.00;100900.56;5025261;28;20295;-55
2022/08/24 06:04:13;;;;;;;0.20;0.00;;;;;;;18.65;100.00;100906.25;5020167;28;20061;-54
2022/08/24 06:06:38;;;;;;;0.00;0.00;;;;;;;18.68;100.00;100908.47;5011818;28;20084;-48
2022/08/24 06:09:03;;;;;;;1.83;0.00;;;;;;;18.70;100.00;100903.69;5027035;28;20029;-54
2022/08/24 06:11:38;;;;;;;0.05;0.05;;;;;;;18.75;100.00;100905.72;5025233;28;20426;-54
2022/08/24 06:14:07;;;;;;;0.00;0.00;;;;;;;18.78;100.00;100909.81;5023275;28;20083;-54
2022/08/24 06:16:43;;;;;;;0.00;0.00;;;;;;;18.80;100.00;100910.38;5024484;28;20071;-50
2022/08/24 06:19:11;;;;;;;1.65;0.00;;;;;;;18.82;100.00;100919.84;5022105;28;20501;-46
2022/08/24 06:21:38;;;;;;;0.95;0.35;;;;;;;18.83;100.00;100916.09;5014559;28;20033;-52
2022/08/24 06:24:04;;;;;;;2.00;0.10;;;;;;;18.82;100.00;100929.75;5018975;28;20414;-53
2022/08/24 06:29:14;;;;;;;0.20;0.00;;;;;;;18.85;100.00;100918.56;5022557;28;20566;-56
2022/08/24 06:31:43;;;;;;;0.75;0.00;;;;;;;18.87;100.00;100929.88;5023748;28;20037;-48
2022/08/24 06:34:10;;;;;;;0.65;0.10;;;;;;;18.90;100.00;100926.72;5018575;28;20040;-52
2022/08/24 06:36:36;;;;;;;1.23;0.00;;;;;;;18.94;100.00;100930.56;5026268;28;20017;-54
2022/08/24 06:39:02;;;;;;;0.30;0.00;;;;;;;18.94;100.00;100925.19;5019252;28;20036;-54
2022/08/24 06:41:28;;;;;;;0.57;0.00;;;;;;;18.92;100.00;100936.19;5022894;28;20018;-51
2022/08/24 06:43:54;;;;;;;1.63;0.00;;;;;;;18.92;100.00;100933.50;5026516;28;20116;-51
2022/08/24 06:46:19;;;;;;;1.95;0.10;;;;;;;18.94;100.00;100942.13;5025682;28;20522;-50
2022/08/24 06:48:44;;;;;;;0.73;0.20;;;;;;;18.99;100.00;100941.44;5028597;28;20034;-51
2022/08/24 06:51:13;;;;;;;0.40;0.00;;;;;;;19.05;100.00;100939.66;5030743;28;20061;-52
2022/08/24 06:53:40;;;;;;;0.08;0.00;;;;;;;19.07;100.00;100940.25;5022469;28;20032;-53
2022/08/24 06:56:06;;;;;;;0.08;0.00;;;;;;;19.08;100.00;100941.91;5021473;28;20066;-53
2022/08/24 06:58:33;;;;;;;0.10;0.00;;;;;;;19.09;100.00;100943.53;5021415;28;20021;-55
2022/08/24 07:01:10;;;;;;;0.47;0.00;;;;;;;19.07;100.00;100942.94;5020330;28;20033;-52
2022/08/24 07:03:36;;;;;;;0.80;0.10;;;;;;;19.01;100.00;100943.88;5029305;28;20371;-48
2022/08/24 07:06:03;;;;;;;0.00;0.00;;;;;;;18.99;100.00;100946.00;5016848;28;20034;-50
2022/08/24 07:08:29;;;;;;;0.65;0.15;;;;;;;18.99;100.00;100946.00;5032098;28;20462;-53
2022/08/24 07:10:54;;;;;;;1.65;0.10;;;;;;;19.02;100.00;100949.00;5031227;28;20039;-52
2022/08/24 07:13:20;;;;;;;0.10;0.10;;;;;;;19.05;100.00;100945.03;5032179;28;20115;-53
2022/08/24 07:15:46;;;;;;;0.10;0.00;;;;;;;19.10;100.00;100954.06;5036340;28;20033;-50
2022/08/24 07:18:13;;;;;;;0.43;0.10;;;;;;;19.14;100.00;100957.06;5028546;28;20048;-53
2022/08/24 07:20:39;;;;;;;0.10;0.00;;;;;;;19.23;100.00;100954.81;5016530;28;20036;-52
2022/08/24 07:23:06;;;;;;;0.15;0.00;;;;;;;19.30;100.00;100956.31;5029702;28;20025;-55
2022/08/24 07:25:32;;;;;;;0.00;0.00;;;;;;;19.37;100.00;100962.41;5027470;28;20123;-55
2022/08/24 07:28:02;;;;;;;0.10;0.00;;;;;;;19.47;100.00;100952.91;5027874;28;20055;-55
2022/08/24 07:30:27;;;;;;;0.03;0.00;;;;;;;19.56;100.00;100954.97;5026098;28;20037;-55
2022/08/24 07:32:55;;;;;;;1.23;0.00;;;;;;;19.64;100.00;100947.59;5037813;28;20041;-56
2022/08/24 07:35:21;;;;;;;0.13;0.10;;;;;;;19.75;100.00;100936.81;5006367;28;20170;-54
2022/08/24 07:37:46;;;;;;;3.03;0.10;;;;;;;19.75;100.00;100928.75;4997315;28;20031;-50
2022/08/24 07:40:11;;;;;;;2.50;0.00;;;;;;;19.71;100.00;100932.97;5014644;28;20036;-50
2022/08/24 07:42:38;;;;;;;1.50;0.08;;;;;;;19.70;100.00;100939.41;5018343;28;20025;-50
2022/08/24 07:45:05;;;;;;;1.17;0.03;;;;;;;19.76;100.00;100941.13;5017123;28;20087;-50
2022/08/24 07:47:30;;;;;;;0.20;0.00;;;;;;;19.89;100.00;100944.59;5021065;28;20049;-53
2022/08/24 07:49:55;;;;;;;0.00;0.00;;;;;;;20.00;100.00;100946.38;5019088;28;20561;-52
2022/08/24 07:52:21;;;;;;;0.68;0.00;;;;;;;20.07;100.00;100939.00;5021684;28;20047;-54
2022/08/24 07:54:46;;;;;;;1.15;0.00;;;;;;;20.12;100.00;100947.16;5016079;28;20056;-53
2022/08/24 07:57:11;;;;;;;0.00;0.00;;;;;;;20.12;100.00;100947.16;5019323;28;20065;-52
2022/08/24 07:59:37;;;;;;;0.10;0.00;;;;;;;20.03;100.00;100941.34;5023770;28;20029;-54
2022/08/24 08:02:04;;;;;;;0.80;0.00;;;;;;;20.04;100.00;100942.97;5019895;28;20021;-51
2022/08/24 08:04:30;;;;;;;0.20;0.00;;;;;;;20.13;100.00;100946.09;5021584;28;20114;-54
2022/08/24 08:06:56;;;;;;;0.50;0.00;;;;;;;20.15;100.00;100952.03;5018465;28;20148;-53
2022/08/24 08:09:22;;;;;;;0.10;0.10;;;;;;;20.17;100.00;100949.94;5022145;28;20114;-52
2022/08/24 08:11:48;;;;;;;0.85;0.22;;;;;;;20.12;100.00;100944.47;5021232;28;20128;-52
2022/08/24 08:14:14;;;;;;;0.10;0.00;;;;;;;20.17;100.00;100946.44;5016567;28;20106;-55
2022/08/24 08:16:40;;;;;;;0.00;0.00;;;;;;;20.39;100.00;100941.13;5020465;28;20461;-55
2022/08/24 08:19:05;;;;;;;0.22;0.00;;;;;;;20.57;100.00;100940.88;5022321;28;20041;-50
2022/08/24 08:24:16;;;;;;;0.00;0.00;;;;;;;21.04;100.00;100934.28;5019790;28;20133;-52
2022/08/24 08:26:49;;;;;;;2.13;0.00;;;;;;;21.12;100.00;100925.78;5019138;28;20025;-54
2022/08/24 08:29:15;;;;;;;0.20;0.10;;;;;;;21.19;100.00;100918.28;5022402;28;20132;-47
2022/08/24 08:31:40;;;;;;;2.13;0.15;;;;;;;21.27;100.00;100925.97;5019201;28;20337;-51
2022/08/24 08:34:07;;;;;;;0.30;0.17;;;;;;;21.54;100.00;100922.53;5011849;28;20052;-52
2022/08/24 08:36:32;;;;;;;0.47;0.10;;;;;;;21.55;100.00;100918.75;5022263;28;20026;-59
2022/08/24 08:38:58;;;;;;;2.30;0.00;;;;;;;21.44;100.00;100919.72;5024638;28;20371;-52
2022/08/24 08:41:51;;;;;;;0.25;0.15;;;;;;;21.41;100.00;100918.34;5020779;28;20620;-58
2022/08/24 08:44:47;;;;;;;0.35;0.00;;;;;;;21.29;100.00;100917.59;5018123;28;20045;-54
2022/08/24 08:47:18;;;;;;;0.10;0.10;;;;;;;21.65;100.00;100912.66;5022311;28;20053;-49
2022/08/24 08:50:03;;;;;;;0.68;0.00;;;;;;;21.93;100.00;100904.28;5021189;28;20167;-60
2022/08/24 08:52:53;;;;;;;0.00;0.00;;;;;;;22.05;100.00;100901.44;5019721;28;20032;-54
2022/08/24 08:55:36;;;;;;;0.28;0.10;;;;;;;22.04;100.00;100904.38;5020234;28;20037;-54
2022/08/24 08:58:10;;;;;;;0.25;0.20;;;;;;;22.07;100.00;100907.38;5020349;28;20057;-53
2022/08/24 09:00:56;;;;;;;3.90;0.47;;;;;;;22.24;100.00;100904.56;5011011;28;20033;-56
2022/08/24 09:03:27;;;;;;;0.20;0.20;;;;;;;22.40;100.00;100891.97;5017308;28;20364;-53
2022/08/24 09:06:11;;;;;;;0.20;0.10;;;;;;;22.67;100.00;100894.59;5016133;28;20038;-59
2022/08/24 09:08:59;;;;;;;0.20;0.10;;;;;;;22.80;100.00;100882.50;5021794;28;20040;-50
2022/08/24 09:11:53;;;;;;;0.17;0.17;;;;;;;22.80;100.00;100893.31;5018857;28;20552;-57
2022/08/24 09:14:43;;;;;;;1.08;0.98;;;;;;;22.72;100.00;100886.53;5021574;28;20578;-52
2022/08/24 09:17:27;;;;;;;0.32;0.10;;;;;;;22.72;100.00;100900.03;5018845;28;20044;-51
2022/08/24 09:20:16;;;;;;;0.10;0.08;;;;;;;22.65;100.00;100896.75;5024388;28;20032;-55
2022/08/24 09:22:46;;;;;;;0.40;0.10;;;;;;;22.89;100.00;100893.63;5021928;28;20103;-55
2022/08/24 09:25:15;;;;;;;0.43;0.43;;;;;;;22.68;100.00;100880.00;5022622;28;20036;-55
2022/08/24 09:27:45;;;;;;;0.52;0.30;;;;;;;22.64;100.00;100882.44;5013859;28;20036;-50
2022/08/24 09:30:19;;;;;;;4.50;0.50;;;;;;;23.04;100.00;100896.44;5020461;28;20087;-52
2022/08/24 09:33:03;;;;;;;2.38;0.32;;;;;;;23.38;100.00;100877.06;5021467;28;20362;-55
2022/08/24 09:36:00;;;;;;;0.75;0.75;;;;;;;23.34;100.00;100884.91;5021042;28;20026;-55
2022/08/24 09:38:45;;;;;;;0.60;0.60;;;;;;;23.16;100.00;100888.09;5018985;28;20087;-51
2022/08/24 09:41:23;;;;;;;3.03;0.80;;;;;;;23.04;100.00;100882.91;5021158;28;20022;-52
2022/08/24 09:44:19;;;;;;;1.13;0.50;;;;;;;23.17;100.00;100893.22;5019271;28;20037;-51
2022/08/24 09:47:11;;;;;;;3.00;0.63;;;;;;;23.04;100.00;100891.03;5016056;28;20029;-49
2022/08/24 09:50:01;;;;;;;2.10;0.80;;;;;;;23.03;100.00;100894.81;5018980;28;20032;-52
2022/08/24 09:52:49;;;;;;;0.40;0.40;;;;;;;23.04;100.00;100893.72;5022984;28;20382;-48
2022/08/24 09:55:29;;;;;;;2.92;0.70;;;;;;;23.34;100.00;100889.50;5011571;28;20025;-55
2022/08/24 09:58:08;;;;;;;4.63;1.10;;;;;;;23.21;100.00;100886.22;5019019;28;20041;-52
2022/08/24 10:00:44;;;;;;;0.63;0.40;;;;;;;23.11;100.00;100890.78;5021348;28;20028;-56
2022/08/24 10:03:15;;;;;;;1.45;0.70;;;;;;;23.02;100.00;100888.56;5019863;28;20445;-53
2022/08/24 10:05:53;;;;;;;3.10;0.50;;;;;;;23.03;100.00;100890.22;5021834;28;20037;-53
2022/08/24 10:08:27;;;;;;;0.20;0.20;;;;;;;23.13;100.00;100888.59;5013995;28;20033;-51
2022/08/24 10:11:18;;;;;;;2.60;0.63;;;;;;;23.36;100.00;100885.44;5019902;28;20115;-50
2022/08/24 10:13:52;;;;;;;1.27;0.13;;;;;;;23.44;100.00;100881.41;5020060;28;20498;-56
2022/08/24 10:16:32;;;;;;;0.30;0.20;;;;;;;23.34;100.00;100884.06;5020398;28;20137;-54
2022/08/24 10:19:26;;;;;;;0.70;0.10;;;;;;;23.24;100.00;100888.41;5021265;28;20104;-51
2022/08/24 10:22:07;;;;;;;0.10;0.10;;;;;;;23.27;100.00;100881.66;5022476;28;20297;-50
2022/08/24 10:24:42;;;;;;;;;;;;;;;23.39;100.00;100875.97;5023342;28;20037;-51
2022/08/24 10:27:32;;;;;;;0.40;0.40;;;;;;;23.51;100.00;100876.56;5025560;28;19959;-53
2022/08/24 10:30:19;;;;;;;0.20;0.20;;;;;;;23.77;100.00;100866.59;5020945;28;20033;-55
2022/08/24 10:32:51;;;;;;;1.20;0.20;;;;;;;23.75;100.00;100868.78;5016143;28;20105;-51
2022/08/24 10:35:24;;;;;;;1.73;0.70;;;;;;;23.73;100.00;100855.50;5019743;28;20137;-50
2022/08/24 10:41:27;;;;;;;0.45;0.45;;;;;;;24.07;100.00;100851.44;5013201;28;20236;-52
2022/08/24 10:44:14;;;;;;;1.13;0.63;;;;;;;23.94;100.00;100860.94;5020033;28;20048;-53
2022/08/24 10:46:43;;;;;;;0.63;0.63;;;;;;;23.81;100.00;100861.47;5018951;28;20036;-51
2022/08/24 10:49:35;;;;;;;0.82;0.30;;;;;;;23.84;100.00;100858.22;5019918;28;20044;-49
2022/08/24 10:52:09;;;;;;;1.98;0.95;;;;;;;23.98;100.00;100859.28;5023567;28;20527;-50
2022/08/24 10:54:36;;;;;;;0.28;0.20;;;;;;;24.03;100.00;100851.16;5015279;28;20520;-55
2022/08/24 10:57:01;;;;;;;1.13;0.43;;;;;;;24.09;100.00;100841.97;5027724;28;20030;-56
2022/08/24 10:59:47;;;;;;;1.90;0.60;;;;;;;24.29;100.00;100841.13;5031471;28;20083;-51
2022/08/24 11:02:32;;;;;;;0.40;0.40;;;;;;;24.69;100.00;100847.56;5034390;28;20030;-52
2022/08/24 11:05:00;;;;;;;0.50;0.50;;;;;;;24.69;100.00;100838.63;5030336;28;20032;-54
2022/08/24 11:07:26;;;;;;;0.22;0.22;;;;;;;24.63;100.00;100859.50;5035268;28;20029;-50
2022/08/24 11:10:00;;;;;;;0.85;0.55;;;;;;;24.37;100.00;100856.84;5021488;28;20446;-54
2022/08/24 11:12:41;;;;;;;0.63;0.30;;;;;;;24.31;100.00;100849.78;5029693;28;20064;-53
2022/08/24 11:15:15;;;;;;;1.55;0.40;;;;;;;24.37;100.00;100848.69;5023606;28;20041;-53
2022/08/24 11:18:01;;;;;;;0.43;0.30;;;;;;;24.36;100.00;100849.78;5035240;28;20064;-55
2022/08/24 11:20:31;;;;;;;0.68;0.40;;;;;;;24.32;100.00;100850.63;5030662;28;20547;-54
2022/08/24 11:23:03;;;;;;;0.45;0.45;;;;;;;24.51;100.00;100843.53;5021823;28;20387;-55
2022/08/24 11:25:32;;;;;;;2.00;0.70;;;;;;;24.58;100.00;100843.25;5025097;28;20033;-49
2022/08/24 11:28:09;;;;;;;0.47;0.10;;;;;;;24.44;100.00;100851.09;5023000;28;20173;-49
2022/08/24 11:30:39;;;;;;;0.40;0.28;;;;;;;24.49;100.00;100851.13;5020672;28;20414;-56
2022/08/24 11:33:22;;;;;;;0.10;0.05;;;;;;;24.54;100.00;100848.41;5030496;28;20058;-54
2022/08/24 11:35:48;;;;;;;1.20;0.22;;;;;;;24.78;100.00;100845.06;5026945;28;20395;-54
2022/08/24 11:38:27;;;;;;;0.90;0.15;;;;;;;25.15;100.00;100843.84;5026296;28;20050;-55
2022/08/24 11:41:08;;;;;;;0.70;0.22;;;;;;;25.26;100.00;100833.75;5019785;28;20026;-52